Historyczne dane pomiarowe

Dodano dane terminowe – wersja testowa.

Dane z okresu 1951-2019

Wersja bazy: 1.32 [2019-02-07, lista zmian], aktualizacja planowana na 2019-03-07

Dane meteo z obszaru Polski uzyskane na podstawie danych udostępnionych przez Instytut Meteorologii i Gospodarki Wodnej – Państwowy Instytut Badawczy.

 

Wybierz Datę:    

       

TemperaturaWilgotnośćWiatrCiśnienieOpadyŚniegCzas trwania zjawisk
 Stacja t tx tn tng RH VA  wxwx mslp ppp RRR   cm mm wxwxwxwxwxwxwx
2002-01-14 -3.0 -1.8 -3.7 -4.9 96.5- 8.0 3.3---- 0.0-- 7---------
2002-01-15 -3.9 -1.7 -5.8 -9.1 89.5- 1.7 5.7---- 0.0-- 7---------
2002-01-16 -5.3 -2.5 -6.8 -8.8 91.3- 1.0 5.0---- 0.0-- 7---------
2002-01-17 -4.3 -2.8 -6.2 -8.5 93.0- 8.0 5.7---- 0.0-- 7---------
2002-01-18 -2.3 -0.8 -3.9 -6.6 94.3- 3.0 9.0---- 0.0-- 7---------
2002-01-19 -0.3 2.2 -2.9 -4.6 92.8- 7.7 6.7---- 0.0-- 7---------
2002-01-20 3.2 4.6 1.7 -0.4 93.8- 7.3 8.7---- 0.0-- 6---------
2002-01-21 4.7 6.8 3.0 1.1 96.3- 8.0 5.3---- 4.5-- 5---------
2002-01-22 5.9 9.3 4.4 0.5 91.5- 4.0 5.7---- 0.0------------
2002-01-23 5.6 7.6 4.7 -0.4 79.5- 5.7 6.3---- 0.0------------
2002-01-24 5.6 7.7 4.5 2.2 79.5- 5.7 3.3---- 0.0------------
2002-01-25 4.2 7.9 2.2 -1.2 73.0- 3.3 3.3---- 0.0------------
2002-01-26 5.5 8.7 0.8 -3.2 88.8- 7.7 6.7---- 1.7------------
2002-01-27 8.5 10.0 6.7 4.3 82.8- 8.0 9.7---- 2.9------------
2002-01-28 9.0 12.6 4.5 2.5 91.0- 7.7 8.3---- 2.2------------
2002-01-29 9.5 12.7 7.5 4.1 69.0- 4.3 7.0---- 0.0------------
2002-01-30 8.2 11.5 6.4 1.4 88.5- 2.3 6.7---- 0.0------------
2002-01-31 8.4 11.2 6.7 3.5 69.0- 8.0 6.7---- 0.0------------
2002-02-01 6.5 10.1 2.7 -2.4 91.5- 2.7 6.7---- 0.0------------
2002-02-02 9.7 13.1 7.2 4.4 82.8- 2.7 6.7---- 0.0------------
2002-02-03 9.8 11.8 8.7 4.4 67.8- 1.7 9.7---- 0.0------------
2002-02-04 5.5 9.3 3.8 -0.8 88.5- 2.7 9.0---- 0.0------------
2002-02-05 7.6 11.6 1.9 -2.5 72.0- 8.0 6.7---- 0.0------------
2002-02-06 6.4 10.4 3.5 3.1 78.3- 8.0 7.7---- 0.1------------
2002-02-07 4.0 5.5 2.4 -1.0 98.0- 8.0 3.3---- 0.0------------
2002-02-08 5.4 6.3 4.0 1.6 86.5- 7.0 11.0---- 0.0------------
2002-02-09 8.0 10.5 5.1 2.6 92.8- 7.7 7.0---- 1.6------------
2002-02-10 6.3 10.0 4.3 2.8 94.0- 6.3 5.0---- 1.8------------
2002-02-11 6.8 9.2 4.2 1.7 93.3- 8.0 3.7---- 1.9------------
2002-02-12 10.0 11.7 8.8 6.2 91.5- 8.0 7.7---- 4.9------------
408.2 ms

 

Źródłem pochodzenia danych jest Instytut Meteorologii i Gospodarki Wodnej – Państwowy Instytut Badawczy. Dane Instytutu Meteorologii i Gospodarki Wodnej – Państwowego Instytutu Badawczego zostały przetworzone.

Dane źródłowe można odnaleźć na stronie https://dane.imgw.pl